Time;durP1;ratioP1;P1;durP2;ratioP2;P2;SDS_P1;SDS_P2;PMS_P1;PMS_P2;Temp;Humidity;BMP_temperature;BMP_pressure;BME280_temperature;BME280_humidity;BME280_pressure;Samples;Min_cycle;Max_cycle;Signal;HPM_P1;HPM_P2
2022/07/30 00:00:15;;;;;;;3.67;3.00;;;20.50;99.90;;;;;;5102036;28;20487;-79
2022/07/30 00:02:43;;;;;;;3.83;2.83;;;20.40;99.90;;;;;;5103015;28;20444;-79
2022/07/30 00:05:10;;;;;;;4.40;3.63;;;20.40;99.90;;;;;;5101946;28;20853;-79
2022/07/30 00:07:37;;;;;;;4.37;3.20;;;20.40;99.90;;;;;;5100304;28;20808;-78
2022/07/30 00:10:04;;;;;;;5.10;3.50;;;20.30;99.90;;;;;;5099607;28;20860;-78
2022/07/30 00:12:31;;;;;;;3.50;2.70;;;20.30;99.90;;;;;;5099842;28;20451;-80
2022/07/30 00:14:58;;;;;;;3.23;2.93;;;20.30;99.90;;;;;;5100124;28;20451;-79
2022/07/30 00:17:25;;;;;;;4.07;3.03;;;20.30;99.90;;;;;;5100849;28;20817;-79
2022/07/30 00:19:53;;;;;;;5.33;3.40;;;20.20;99.90;;;;;;5100593;28;20494;-79
2022/07/30 00:22:20;;;;;;;4.50;3.70;;;20.20;99.90;;;;;;5100192;28;20443;-79
2022/07/30 00:24:46;;;;;;;3.30;3.00;;;20.20;99.90;;;;;;5099657;28;20443;-80
2022/07/30 00:27:13;;;;;;;3.80;3.03;;;20.20;99.90;;;;;;5099465;28;20454;-79
2022/07/30 00:29:40;;;;;;;5.03;2.73;;;20.20;99.90;;;;;;5099874;28;20517;-79
2022/07/30 00:32:07;;;;;;;4.03;3.17;;;20.20;99.90;;;;;;5099327;28;20444;-79
2022/07/30 00:34:34;;;;;;;4.93;2.73;;;20.20;99.90;;;;;;5099728;28;20440;-79
2022/07/30 00:37:02;;;;;;;4.40;3.03;;;20.20;99.90;;;;;;5099971;28;20448;-79
2022/07/30 00:39:29;;;;;;;3.03;2.77;;;20.20;99.90;;;;;;5098876;28;20460;-80
2022/07/30 00:41:58;;;;;;;3.97;3.43;;;20.10;99.90;;;;;;5099125;28;20424;-80
2022/07/30 00:44:25;;;;;;;3.90;3.07;;;20.00;99.90;;;;;;5099842;28;20439;-80
2022/07/30 00:46:52;;;;;;;5.80;3.47;;;20.10;99.90;;;;;;5099495;28;20981;-80
2022/07/30 00:49:19;;;;;;;9.23;2.90;;;20.10;99.90;;;;;;5099349;28;20988;-78
2022/07/30 00:51:46;;;;;;;5.07;3.17;;;20.10;99.90;;;;;;5100291;28;20539;-79
2022/07/30 00:54:14;;;;;;;33.50;25.00;;;20.10;99.90;;;;;;5100283;28;20447;-79
2022/07/30 00:56:42;;;;;;;4.80;3.57;;;20.00;99.90;;;;;;5099077;28;20938;-80
2022/07/30 00:59:09;;;;;;;3.50;3.20;;;20.00;99.90;;;;;;5099062;28;20475;-80
2022/07/30 01:01:36;;;;;;;5.87;5.20;;;19.90;99.90;;;;;;5099129;28;20562;-79
2022/07/30 01:04:03;;;;;;;6.80;3.77;;;19.90;99.90;;;;;;5099099;28;20456;-79
2022/07/30 01:06:30;;;;;;;5.63;3.40;;;19.90;99.90;;;;;;5098485;28;20951;-79
2022/07/30 01:08:57;;;;;;;8.13;3.40;;;19.90;99.90;;;;;;5098241;28;20474;-80
2022/07/30 01:11:32;;;;;;;3.97;3.40;;;19.90;99.90;;;;;;5098144;28;20443;-78
2022/07/30 01:13:59;;;;;;;7.83;3.53;;;19.80;99.90;;;;;;5101301;28;20424;-79
2022/07/30 01:16:26;;;;;;;6.77;3.50;;;19.80;99.90;;;;;;5102369;28;20950;-80
2022/07/30 01:21:43;;;;;;;3.73;3.37;;;19.80;99.90;;;;;;5102236;28;20505;-79
2022/07/30 01:24:22;;;;;;;4.70;3.10;;;19.70;99.90;;;;;;5099639;28;20459;-81
2022/07/30 01:26:51;;;;;;;4.83;3.17;;;19.70;99.90;;;;;;5100247;28;20436;-80
2022/07/30 01:29:18;;;;;;;4.97;3.20;;;19.70;1.00;;;;;;5098408;28;20484;-81
2022/07/30 01:31:47;;;;;;;3.50;2.90;;;19.60;1.00;;;;;;5097304;28;20527;-80
2022/07/30 01:34:16;;;;;;;3.40;3.00;;;19.60;1.00;;;;;;5097384;28;20443;-80
2022/07/30 01:36:45;;;;;;;3.13;2.90;;;19.70;1.00;;;;;;5097102;28;20582;-81
2022/07/30 01:39:14;;;;;;;7.13;3.40;;;19.70;1.00;;;;;;5097184;28;20464;-81
2022/07/30 01:41:43;;;;;;;8.10;3.90;;;19.60;1.00;;;;;;5097158;28;20966;-79
2022/07/30 01:44:14;;;;;;;3.73;2.90;;;19.60;1.00;;;;;;5097200;28;20517;-80
2022/07/30 01:46:41;;;;;;;3.60;3.17;;;19.60;1.00;;;;;;5096399;28;20428;-80
2022/07/30 01:49:09;;;;;;;6.10;3.00;;;19.50;1.00;;;;;;5096446;28;20470;-80
2022/07/30 01:51:38;;;;;;;3.47;3.20;;;19.50;1.00;;;;;;5095759;28;20444;-80
2022/07/30 01:54:08;;;;;;;3.23;2.90;;;19.50;1.00;;;;;;5096249;28;20487;-80
2022/07/30 01:56:37;;;;;;;2.77;2.67;;;19.50;1.00;;;;;;5096671;28;20777;-81
2022/07/30 01:59:07;;;;;;;3.87;2.90;;;19.50;1.00;;;;;;5096430;28;20480;-79
2022/07/30 02:01:35;;;;;;;4.20;3.30;;;19.50;1.00;;;;;;5097456;28;20675;-80
2022/07/30 02:04:03;;;;;;;4.67;3.10;;;19.50;1.00;;;;;;5098031;28;20446;-79
2022/07/30 02:06:34;;;;;;;3.97;3.67;;;19.50;1.00;;;;;;5097967;28;20448;-80
2022/07/30 02:09:04;;;;;;;4.60;3.10;;;19.40;1.00;;;;;;5096572;28;20470;-77
2022/07/30 02:14:24;;;;;;;4.67;3.80;;;19.40;1.00;;;;;;5097112;28;20817;-79
2022/07/30 02:16:57;;;;;;;4.13;3.30;;;19.40;1.00;;;;;;5096764;28;20798;-80
2022/07/30 02:19:28;;;;;;;2.90;2.70;;;19.30;1.00;;;;;;5095853;28;20951;-80
2022/07/30 02:22:00;;;;;;;3.20;3.00;;;19.40;1.00;;;;;;5096227;28;20468;-79
2022/07/30 02:24:30;;;;;;;6.20;3.20;;;19.30;1.00;;;;;;5096361;28;20439;-79
2022/07/30 02:27:02;;;;;;;3.30;3.07;;;19.30;1.00;;;;;;5096311;28;20444;-81
2022/07/30 02:29:32;;;;;;;4.80;3.07;;;19.30;1.00;;;;;;5096469;28;20468;-80
2022/07/30 02:32:01;;;;;;;4.63;3.23;;;19.30;1.00;;;;;;5097238;28;20492;-80
2022/07/30 02:34:32;;;;;;;5.07;3.40;;;19.20;1.00;;;;;;5096299;28;20509;-78
2022/07/30 02:37:00;;;;;;;4.47;3.50;;;19.20;1.00;;;;;;5097599;28;20436;-79
2022/07/30 02:39:29;;;;;;;8.80;3.70;;;19.20;1.00;;;;;;5098209;28;20551;-78
2022/07/30 02:41:57;;;;;;;3.80;3.50;;;19.20;1.00;;;;;;5096559;28;20892;-80
2022/07/30 02:44:27;;;;;;;5.37;4.00;;;19.20;1.00;;;;;;5097237;28;20444;-79
2022/07/30 02:46:56;;;;;;;4.60;3.20;;;19.20;1.00;;;;;;5099707;28;20420;-81
2022/07/30 02:49:25;;;;;;;3.87;3.03;;;19.10;1.00;;;;;;5102585;28;20479;-80
2022/07/30 02:51:52;;;;;;;3.33;3.03;;;19.10;1.00;;;;;;5100749;28;20447;-81
2022/07/30 02:54:21;;;;;;;2.90;2.70;;;19.10;1.00;;;;;;5095982;28;20440;-80
2022/07/30 02:56:50;;;;;;;3.73;3.13;;;19.10;1.00;;;;;;5095932;28;20787;-80
2022/07/30 02:59:19;;;;;;;6.10;3.27;;;19.10;1.00;;;;;;5095056;28;21017;-79
2022/07/30 03:01:47;;;;;;;7.90;3.20;;;19.00;1.00;;;;;;5095831;28;20486;-80
2022/07/30 03:04:15;;;;;;;4.87;3.10;;;19.00;1.00;;;;;;5100037;28;20856;-81
2022/07/30 03:06:45;;;;;;;4.23;2.93;;;19.00;1.00;;;;;;5100228;28;20469;-80
2022/07/30 03:09:13;;;;;;;3.97;3.13;;;18.90;1.00;;;;;;5101395;28;20475;-79
2022/07/30 03:11:41;;;;;;;3.80;3.50;;;19.00;1.00;;;;;;5101108;28;20531;-78
2022/07/30 03:14:07;;;;;;;4.80;3.20;;;19.00;1.00;;;;;;5100711;28;20448;-79
2022/07/30 03:16:37;;;;;;;7.17;3.53;;;18.90;1.00;;;;;;5101544;28;20443;-78
2022/07/30 03:19:08;;;;;;;4.33;2.80;;;18.90;1.00;;;;;;5099591;28;20974;-79
2022/07/30 03:21:37;;;;;;;3.27;2.97;;;18.90;1.00;;;;;;5098585;28;20467;-79
2022/07/30 03:24:07;;;;;;;5.30;3.40;;;18.90;1.00;;;;;;5098611;28;20459;-78
2022/07/30 03:26:36;;;;;;;3.87;3.27;;;18.80;1.00;;;;;;5098176;28;20420;-78
2022/07/30 03:29:03;;;;;;;5.13;2.93;;;18.80;1.00;;;;;;5097578;28;20979;-79
2022/07/30 03:31:30;;;;;;;9.20;2.80;;;18.80;1.00;;;;;;5098346;28;20446;-79
2022/07/30 03:33:58;;;;;;;4.83;3.13;;;18.80;1.00;;;;;;5098929;28;20451;-80
2022/07/30 03:36:25;;;;;;;3.40;3.10;;;18.80;1.00;;;;;;5098171;28;20936;-79
2022/07/30 03:38:53;;;;;;;3.37;3.07;;;18.80;1.00;;;;;;5097869;28;20475;-79
2022/07/30 03:41:22;;;;;;;7.90;3.40;;;18.70;1.00;;;;;;5098727;28;20479;-79
2022/07/30 03:43:49;;;;;;;3.30;3.00;;;18.70;1.00;;;;;;5098337;28;20471;-79
2022/07/30 03:46:16;;;;;;;7.10;3.57;;;18.70;1.00;;;;;;5098698;28;20815;-79
2022/07/30 03:48:44;;;;;;;3.73;3.30;;;18.70;1.00;;;;;;5098472;28;20468;-79
2022/07/30 03:51:11;;;;;;;3.43;2.57;;;18.70;1.00;;;;;;5098484;28;20452;-79
2022/07/30 03:53:40;;;;;;;3.88;2.50;;;18.70;1.00;;;;;;5096912;28;20923;-79
2022/07/30 03:56:08;;;;;;;3.50;2.90;;;18.70;1.00;;;;;;5098049;28;20197;-79
2022/07/30 03:58:37;;;;;;;4.50;2.83;;;18.70;1.00;;;;;;5099087;28;20548;-79
2022/07/30 04:01:05;;;;;;;6.33;3.03;;;18.70;1.00;;;;;;5099215;28;20475;-79
2022/07/30 04:03:34;;;;;;;2.60;2.40;;;18.70;1.00;;;;;;5098222;28;20953;-79
2022/07/30 04:06:01;;;;;;;5.53;2.70;;;18.90;1.00;;;;;;5098371;28;20462;-79
2022/07/30 04:08:28;;;;;;;2.70;2.50;;;18.80;1.00;;;;;;5098997;28;20470;-80
2022/07/30 04:10:55;;;;;;;4.47;3.50;;;18.90;1.00;;;;;;5098765;28;20443;-80
2022/07/30 04:13:22;;;;;;;10.87;3.00;;;18.90;1.00;;;;;;5098518;28;20454;-79
2022/07/30 04:15:59;;;;;;;5.33;3.13;;;18.70;1.00;;;;;;5098524;28;20440;-79
2022/07/30 04:18:31;;;;;;;5.60;2.40;;;18.60;1.00;;;;;;5097981;28;20499;-79
2022/07/30 04:20:59;;;;;;;5.53;3.20;;;18.60;1.00;;;;;;5097366;28;20464;-80
2022/07/30 04:23:26;;;;;;;5.80;2.70;;;18.60;1.00;;;;;;5097333;28;20443;-80
2022/07/30 04:25:54;;;;;;;4.00;3.60;;;18.60;1.00;;;;;;5097466;28;20553;-79
2022/07/30 04:28:21;;;;;;;7.80;2.70;;;18.70;1.00;;;;;;5100967;28;20464;-78
2022/07/30 04:30:48;;;;;;;3.83;2.70;;;18.80;1.00;;;;;;5099416;28;20450;-79
2022/07/30 04:33:16;;;;;;;4.20;2.73;;;18.70;1.00;;;;;;5098554;28;20444;-78
2022/07/30 04:35:43;;;;;;;5.80;3.03;;;18.70;1.00;;;;;;5097982;28;20451;-79
2022/07/30 04:38:10;;;;;;;3.23;2.50;;;18.80;1.00;;;;;;5101538;28;20569;-78
2022/07/30 04:40:37;;;;;;;2.53;2.33;;;18.60;1.00;;;;;;5102961;28;20444;-78
2022/07/30 04:43:03;;;;;;;2.57;2.37;;;18.70;1.00;;;;;;5104485;28;21023;-80
2022/07/30 04:45:30;;;;;;;2.90;2.30;;;18.80;1.00;;;;;;5104579;28;20439;-79
2022/07/30 04:47:57;;;;;;;3.03;2.63;;;18.80;1.00;;;;;;5104594;28;20455;-79
2022/07/30 04:50:27;;;;;;;2.90;2.07;;;18.80;1.00;;;;;;5103034;28;20451;-79
2022/07/30 04:52:55;;;;;;;4.00;2.57;;;18.90;1.00;;;;;;5099917;28;20432;-80
2022/07/30 04:55:23;;;;;;;3.47;2.57;;;18.80;1.00;;;;;;5101557;28;20475;-79
2022/07/30 04:57:52;;;;;;;2.87;2.10;;;18.70;1.00;;;;;;5104071;28;20481;-78
2022/07/30 05:00:19;;;;;;;2.33;2.23;;;18.70;1.00;;;;;;5109193;22;20598;-76
2022/07/30 05:02:48;;;;;;;2.30;1.80;;;18.70;1.00;;;;;;5094741;28;20529;-75
2022/07/30 05:05:16;;;;;;;5.43;2.73;;;18.70;1.00;;;;;;5094701;28;20981;-75
2022/07/30 05:07:46;;;;;;;2.60;2.40;;;18.90;1.00;;;;;;5094682;28;20814;-74
2022/07/30 05:10:13;;;;;;;2.23;2.03;;;18.90;1.00;;;;;;5094934;28;20467;-75
2022/07/30 05:12:40;;;;;;;6.00;2.23;;;18.80;1.00;;;;;;5094634;28;20444;-76
2022/07/30 05:15:08;;;;;;;3.77;2.30;;;18.80;1.00;;;;;;5094476;28;20487;-74
2022/07/30 05:17:36;;;;;;;4.93;2.10;;;18.70;1.00;;;;;;5095444;28;20463;-75
2022/07/30 05:20:03;;;;;;;3.80;2.10;;;18.70;1.00;;;;;;5094655;28;20468;-76
2022/07/30 05:22:30;;;;;;;3.43;1.90;;;18.70;1.00;;;;;;5094978;28;20502;-76
2022/07/30 05:24:58;;;;;;;2.93;2.53;;;18.70;1.00;;;;;;5094856;28;20451;-75
2022/07/30 05:27:25;;;;;;;2.60;2.17;;;18.70;1.00;;;;;;5095176;28;20440;-76
2022/07/30 05:29:51;;;;;;;4.87;2.20;;;18.80;1.00;;;;;;5096427;28;20464;-76
2022/07/30 05:32:18;;;;;;;3.27;2.40;;;18.90;1.00;;;;;;5095423;28;20444;-75
2022/07/30 05:34:48;;;;;;;2.07;1.87;;;18.90;1.00;;;;;;5094671;28;20444;-76
2022/07/30 05:37:14;;;;;;;2.53;2.30;;;19.00;1.00;;;;;;5094811;28;20451;-76
2022/07/30 05:39:41;;;;;;;3.83;2.00;;;18.80;1.00;;;;;;5094110;28;20475;-76
2022/07/30 05:42:09;;;;;;;4.00;2.27;;;18.80;1.00;;;;;;5094163;28;20479;-76
2022/07/30 05:44:36;;;;;;;2.47;1.80;;;18.80;1.00;;;;;;5093804;28;20452;-75
2022/07/30 05:47:03;;;;;;;7.37;2.67;;;18.80;1.00;;;;;;5094023;28;20448;-75
2022/07/30 05:49:29;;;;;;;5.03;2.50;;;18.90;1.00;;;;;;5093811;28;20463;-76
2022/07/30 05:51:56;;;;;;;4.87;2.10;;;18.90;1.00;;;;;;5093645;28;20943;-75
2022/07/30 05:54:23;;;;;;;2.10;2.00;;;19.10;1.00;;;;;;5093631;28;20448;-75
2022/07/30 05:56:49;;;;;;;3.67;2.67;;;19.10;1.00;;;;;;5093738;28;20448;-75
2022/07/30 05:59:17;;;;;;;5.73;2.33;;;19.20;1.00;;;;;;5093110;28;20986;-75
2022/07/30 06:01:44;;;;;;;3.00;2.27;;;19.10;1.00;;;;;;5093684;28;20490;-76
2022/07/30 06:04:11;;;;;;;3.00;2.33;;;19.30;1.00;;;;;;5093805;28;20474;-75
2022/07/30 06:06:37;;;;;;;2.27;2.07;;;19.30;1.00;;;;;;5093700;28;20794;-75
2022/07/30 06:09:04;;;;;;;5.67;2.60;;;19.40;1.00;;;;;;5093498;28;20471;-75
2022/07/30 06:11:31;;;;;;;5.10;2.20;;;19.30;1.00;;;;;;5093796;28;20815;-75
2022/07/30 06:13:57;;;;;;;5.80;2.10;;;19.20;1.00;;;;;;5093618;28;20852;-75
2022/07/30 06:16:25;;;;;;;2.40;2.20;;;19.10;1.00;;;;;;5093616;28;20470;-75
2022/07/30 06:18:52;;;;;;;3.40;2.70;;;19.10;1.00;;;;;;5093484;28;20456;-75
2022/07/30 06:21:19;;;;;;;2.33;2.10;;;19.10;1.00;;;;;;5093277;28;20450;-75
2022/07/30 06:23:46;;;;;;;3.30;2.53;;;19.10;1.00;;;;;;5093419;28;20443;-74
2022/07/30 06:26:13;;;;;;;5.60;2.50;;;19.20;1.00;;;;;;5093333;28;20443;-75
2022/07/30 06:28:40;;;;;;;5.27;2.07;;;19.20;1.00;;;;;;5093336;28;20467;-75
2022/07/30 06:31:06;;;;;;;6.60;2.03;;;19.20;1.00;;;;;;5094034;28;20806;-75
2022/07/30 06:33:34;;;;;;;2.13;1.93;;;19.30;1.00;;;;;;5093257;28;20811;-75
2022/07/30 06:36:01;;;;;;;4.70;2.40;;;19.40;1.00;;;;;;5093157;28;20443;-75
2022/07/30 06:38:28;;;;;;;5.20;1.83;;;19.30;1.00;;;;;;5092858;28;20451;-75
2022/07/30 06:40:55;;;;;;;3.13;2.13;;;19.40;1.00;;;;;;5093202;28;20456;-75
2022/07/30 06:43:21;;;;;;;2.43;2.03;;;19.50;1.00;;;;;;5093356;28;20480;-75
2022/07/30 06:45:48;;;;;;;2.63;1.93;;;19.60;1.00;;;;;;5092914;28;20906;-76
2022/07/30 06:48:15;;;;;;;4.53;2.67;;;19.60;1.00;;;;;;5092985;28;20457;-75
2022/07/30 06:50:43;;;;;;;13.40;2.90;;;19.50;1.00;;;;;;5093245;28;20483;-75
2022/07/30 06:53:10;;;;;;;3.50;2.53;;;19.50;1.00;;;;;;5093241;28;20444;-76
2022/07/30 06:55:36;;;;;;;2.80;1.70;;;19.50;1.00;;;;;;5093316;28;20447;-75
2022/07/30 06:58:03;;;;;;;12.20;2.23;;;19.60;1.00;;;;;;5093115;28;20463;-76
2022/07/30 07:00:30;;;;;;;1.77;1.67;;;19.60;1.00;;;;;;5092929;28;20526;-74
2022/07/30 07:02:57;;;;;;;3.90;2.10;;;19.70;1.00;;;;;;5093096;28;20842;-74
2022/07/30 07:05:27;;;;;;;4.83;2.33;;;19.80;1.00;;;;;;5092800;28;20452;-75
2022/07/30 07:07:55;;;;;;;3.30;1.83;;;19.70;1.00;;;;;;5092769;28;20432;-75
2022/07/30 07:10:22;;;;;;;4.53;2.20;;;19.80;1.00;;;;;;5092762;28;20467;-76
2022/07/30 07:12:49;;;;;;;4.53;2.60;;;19.80;1.00;;;;;;5092554;28;20443;-75
2022/07/30 07:15:15;;;;;;;2.07;1.87;;;19.80;1.00;;;;;;5093078;28;20448;-75
2022/07/30 07:17:42;;;;;;;2.40;2.03;;;19.80;1.00;;;;;;5092628;28;20454;-75
2022/07/30 07:20:10;;;;;;;7.47;2.43;;;19.90;1.00;;;;;;5092624;28;20468;-75
2022/07/30 07:22:37;;;;;;;2.90;2.47;;;20.00;1.00;;;;;;5092626;28;20998;-75
2022/07/30 07:25:06;;;;;;;3.10;2.10;;;20.00;1.00;;;;;;5092906;28;20447;-75
2022/07/30 07:27:33;;;;;;;1.87;1.77;;;19.90;1.00;;;;;;5092967;28;20818;-75
2022/07/30 07:29:59;;;;;;;4.40;2.47;;;20.00;1.00;;;;;;5092938;28;20463;-75
2022/07/30 07:32:26;;;;;;;1.93;1.83;;;20.30;1.00;;;;;;5092860;28;20459;-75
2022/07/30 07:34:55;;;;;;;3.70;1.67;;;20.20;1.00;;;;;;5093754;28;20440;-75
2022/07/30 07:37:22;;;;;;;2.57;2.37;;;20.10;1.00;;;;;;5092840;28;20478;-75
2022/07/30 07:39:49;;;;;;;5.70;2.10;;;20.10;1.00;;;;;;5092559;28;20464;-75
2022/07/30 07:42:17;;;;;;;2.30;1.87;;;20.10;1.00;;;;;;5092247;28;20471;-75
2022/07/30 07:44:43;;;;;;;3.73;1.67;;;20.10;1.00;;;;;;5092666;28;20451;-75
2022/07/30 07:47:10;;;;;;;1.80;1.70;;;20.20;1.00;;;;;;5092598;28;20440;-75
2022/07/30 07:49:37;;;;;;;4.73;2.40;;;20.40;1.00;;;;;;5094571;28;20466;-75
2022/07/30 07:52:04;;;;;;;6.07;3.73;;;20.40;1.00;;;;;;5096327;28;20451;-74
2022/07/30 07:54:31;;;;;;;3.13;1.87;;;20.40;1.00;;;;;;5096622;28;20448;-75
2022/07/30 07:56:58;;;;;;;4.10;2.03;;;20.40;1.00;;;;;;5096571;28;20443;-75
2022/07/30 07:59:26;;;;;;;2.37;2.17;;;20.40;1.00;;;;;;5097156;28;20573;-75
2022/07/30 08:01:52;;;;;;;4.90;2.10;;;20.50;1.00;;;;;;5097412;28;20439;-76
2022/07/30 08:04:19;;;;;;;4.40;2.07;;;20.60;1.00;;;;;;5095791;28;20973;-75
2022/07/30 08:06:46;;;;;;;2.80;2.23;;;20.70;1.00;;;;;;5096923;28;20452;-75
2022/07/30 08:09:12;;;;;;;2.63;2.43;;;20.80;1.00;;;;;;5097105;28;20479;-76
2022/07/30 08:11:39;;;;;;;2.67;2.47;;;20.90;1.00;;;;;;5096287;28;20444;-76
2022/07/30 08:14:06;;;;;;;3.83;2.20;;;20.90;1.00;;;;;;5096315;28;20444;-75
2022/07/30 08:16:34;;;;;;;2.53;2.33;;;21.00;1.00;;;;;;5096635;28;20460;-76
2022/07/30 08:19:01;;;;;;;3.00;2.80;;;21.10;1.00;;;;;;5095840;28;20475;-75
2022/07/30 08:21:28;;;;;;;2.70;2.20;;;20.80;1.00;;;;;;5095769;28;20528;-75
2022/07/30 08:23:54;;;;;;;3.60;2.50;;;20.80;1.00;;;;;;5095748;28;20488;-75
2022/07/30 08:26:21;;;;;;;2.30;2.10;;;20.80;1.00;;;;;;5095746;28;20450;-76
2022/07/30 08:28:48;;;;;;;3.17;2.30;;;20.80;1.00;;;;;;5095590;28;20470;-76
2022/07/30 08:31:15;;;;;;;3.70;3.00;;;20.90;1.00;;;;;;5095835;28;20455;-76
2022/07/30 08:33:43;;;;;;;3.17;2.00;;;21.00;1.00;;;;;;5095515;28;20447;-75
2022/07/30 08:36:10;;;;;;;4.67;2.40;;;21.00;1.00;;;;;;5095317;28;20510;-75
2022/07/30 08:38:37;;;;;;;2.27;2.10;;;20.70;1.00;;;;;;5095439;28;20515;-76
2022/07/30 08:41:04;;;;;;;2.63;2.43;;;20.90;1.00;;;;;;5095341;28;20451;-75
2022/07/30 08:43:31;;;;;;;3.87;3.53;;;21.00;1.00;;;;;;5095178;28;20498;-76
2022/07/30 08:46:00;;;;;;;3.97;2.10;;;21.10;1.00;;;;;;5095791;28;20455;-74
2022/07/30 08:48:29;;;;;;;4.03;2.20;;;21.40;1.00;;;;;;5095028;28;20889;-74
2022/07/30 08:50:58;;;;;;;2.60;2.40;;;21.50;1.00;;;;;;5095078;28;20448;-74
2022/07/30 08:53:26;;;;;;;4.13;2.57;;;21.50;1.00;;;;;;5095052;28;20451;-75
2022/07/30 08:55:53;;;;;;;3.60;3.27;;;21.70;1.00;;;;;;5095004;28;20856;-75
2022/07/30 08:58:27;;;;;;;2.70;2.50;;;21.60;1.00;;;;;;5094955;28;20456;-75
2022/07/30 09:00:54;;;;;;;4.57;2.83;;;21.40;1.00;;;;;;5094492;28;20428;-76
2022/07/30 09:03:21;;;;;;;2.93;2.53;;;21.30;1.00;;;;;;5094492;28;20480;-75
2022/07/30 09:05:48;;;;;;;8.13;7.30;;;21.40;1.00;;;;;;5095024;28;20452;-76
2022/07/30 09:08:16;;;;;;;4.00;2.97;;;21.50;1.00;;;;;;5094931;28;20520;-76
2022/07/30 09:10:43;;;;;;;2.90;2.43;;;21.50;1.00;;;;;;5094708;28;20444;-76
2022/07/30 09:13:24;;;;;;;4.03;2.60;;;21.70;1.00;;;;;;5094455;28;20951;-74
2022/07/30 09:15:51;;;;;;;3.50;3.20;;;21.80;1.00;;;;;;5094978;28;20424;-76
2022/07/30 09:18:28;;;;;;;3.53;2.50;;;21.70;1.00;;;;;;5094734;28;20444;-76
2022/07/30 09:20:55;;;;;;;3.53;2.73;;;21.90;1.00;;;;;;5094636;28;20973;-75
2022/07/30 09:23:23;;;;;;;6.40;2.53;;;22.10;1.00;;;;;;5094512;28;20487;-76
2022/07/30 09:25:51;;;;;;;5.03;2.87;;;22.00;1.00;;;;;;5095249;28;20444;-77
2022/07/30 09:28:28;;;;;;;3.10;2.90;;;22.30;1.00;;;;;;5095197;28;20450;-76
2022/07/30 09:30:56;;;;;;;3.60;2.73;;;22.20;1.00;;;;;;5096675;28;20434;-75
2022/07/30 09:33:37;;;;;;;2.93;2.60;;;22.30;1.00;;;;;;5094657;28;20440;-75
2022/07/30 09:36:06;;;;;;;2.50;2.30;;;22.40;1.00;;;;;;5094520;28;20791;-76
2022/07/30 09:38:46;;;;;;;2.70;2.00;;;22.80;1.00;;;;;;5094220;28;20818;-75
2022/07/30 09:41:13;;;;;;;3.57;2.57;;;22.50;1.00;;;;;;5094424;28;20439;-75
2022/07/30 09:43:44;;;;;;;3.40;2.40;;;22.50;1.00;;;;;;5093489;28;20480;-75
2022/07/30 09:46:11;;;;;;;5.77;2.17;;;22.60;1.00;;;;;;5093945;28;20432;-75
2022/07/30 09:48:38;;;;;;;2.83;2.63;;;22.70;1.00;;;;;;5094043;28;20832;-75
2022/07/30 09:51:05;;;;;;;5.30;2.77;;;22.60;1.00;;;;;;5093900;28;20813;-74
2022/07/30 09:53:32;;;;;;;4.40;2.83;;;22.60;1.00;;;;;;5093935;28;20447;-74
2022/07/30 09:56:00;;;;;;;2.60;2.40;;;22.50;1.00;;;;;;5094785;28;20469;-74
2022/07/30 09:58:38;;;;;;;3.30;3.00;;;22.40;1.00;;;;;;5095170;28;20473;-75
2022/07/30 10:01:05;;;;;;;3.30;3.00;;;22.60;1.00;;;;;;5094270;28;20931;-76
2022/07/30 10:03:32;;;;;;;2.80;2.60;;;22.70;1.00;;;;;;5094267;28;20902;-75
2022/07/30 10:06:00;;;;;;;2.70;2.50;;;22.70;1.00;;;;;;5093753;28;20447;-75
2022/07/30 10:08:42;;;;;;;5.37;2.43;;;22.50;1.00;;;;;;5094226;28;20791;-76
2022/07/30 10:11:13;;;;;;;4.00;3.10;;;23.00;1.00;;;;;;5093319;28;20777;-75
2022/07/30 10:13:41;;;;;;;4.87;2.27;;;23.10;1.00;;;;;;5093506;28;20516;-75
2022/07/30 10:16:09;;;;;;;2.77;2.57;;;23.10;1.00;;;;;;5093445;28;20946;-76
2022/07/30 10:18:37;;;;;;;5.43;2.63;;;23.50;1.00;;;;;;5093390;28;20440;-75
2022/07/30 10:21:04;;;;;;;3.47;2.27;;;23.30;1.00;;;;;;5093524;28;20447;-76
2022/07/30 10:23:31;;;;;;;2.53;2.33;;;23.30;1.00;;;;;;5093650;28;20479;-76
2022/07/30 10:25:58;;;;;;;2.37;1.80;;;23.30;1.00;;;;;;5094526;28;20475;-76
2022/07/30 10:28:28;;;;;;;5.40;2.37;;;23.30;1.00;;;;;;5093395;28;20448;-74
2022/07/30 10:30:56;;;;;;;2.90;2.20;;;23.50;1.00;;;;;;5094447;28;20443;-75
2022/07/30 10:33:27;;;;;;;4.23;3.30;;;23.60;1.00;;;;;;5093670;28;20531;-76
2022/07/30 10:35:54;;;;;;;3.33;2.97;;;23.60;1.00;;;;;;5093035;28;20454;-75
2022/07/30 10:38:23;;;;;;;4.73;2.80;;;23.90;1.00;;;;;;5093599;28;20508;-75
2022/07/30 10:40:57;;;;;;;5.70;2.17;;;23.70;1.00;;;;;;5092978;28;20440;-76
2022/07/30 10:44:03;;;;;;;4.23;2.43;;;23.70;1.00;;;;;;5093464;28;20460;-75
2022/07/30 10:46:46;;;;;;;3.13;2.20;;;23.70;1.00;;;;;;5093081;28;20430;-74
2022/07/30 10:49:14;;;;;;;7.23;2.57;;;23.80;1.00;;;;;;5092786;28;20982;-75
2022/07/30 10:51:45;;;;;;;3.77;2.77;;;23.90;1.00;;;;;;5093835;28;20455;-74
2022/07/30 10:54:40;;;;;;;11.37;2.27;;;23.90;1.00;;;;;;5093662;28;20789;-74
2022/07/30 10:57:11;;;;;;;6.90;2.50;;;23.80;1.00;;;;;;5095137;28;20447;-75
2022/07/30 11:00:13;;;;;;;3.10;1.90;;;23.80;99.90;;;;;;5107859;22;20527;-76
2022/07/30 11:03:06;;;;;;;5.90;2.03;;;23.90;1.00;;;;;;5010728;28;20484;-76
2022/07/30 11:05:33;;;;;;;3.57;2.10;;;23.90;99.90;;;;;;5010662;28;21003;-76
2022/07/30 11:08:32;;;;;;;1.67;1.57;;;23.90;1.00;;;;;;5062180;28;20923;-76
2022/07/30 11:11:00;;;;;;;5.07;3.33;;;24.00;1.00;;;;;;5092449;28;20974;-76
2022/07/30 11:13:49;;;;;;;7.70;2.43;;;24.10;99.90;;;;;;5093206;28;20439;-76
2022/07/30 11:16:19;;;;;;;3.43;2.30;;;24.20;1.00;;;;;;5093114;28;20501;-77
2022/07/30 11:19:07;;;;;;;2.30;2.10;;;24.20;99.90;;;;;;5093572;28;20443;-78
2022/07/30 11:21:35;;;;;;;3.53;1.90;;;24.20;1.00;;;;;;5085781;28;20461;-77
2022/07/30 11:24:02;;;;;;;5.57;2.40;;;24.30;1.00;;;;;;5095406;28;21037;-77
2022/07/30 11:26:52;;;;;;;3.23;2.43;;;24.30;99.90;;;;;;5097163;28;20444;-77
2022/07/30 11:29:33;;;;;;;4.03;2.90;;;24.50;99.90;;;;;;5097132;28;20478;-78
2022/07/30 11:32:26;;;;;;;4.30;2.30;;;24.60;99.90;;;;;;5096706;28;20431;-77
2022/07/30 11:35:11;;;;;;;4.07;2.30;;;24.70;99.90;;;;;;5097289;28;20420;-78
2022/07/30 11:38:00;;;;;;;2.73;2.07;;;24.70;99.90;;;;;;5097066;28;20436;-77
2022/07/30 11:40:28;;;;;;;3.83;3.40;;;24.70;99.90;;;;;;5097783;28;21005;-77
2022/07/30 11:43:19;;;;;;;2.57;2.20;;;24.80;99.90;;;;;;5097948;28;20444;-76
2022/07/30 11:45:47;;;;;;;1.97;1.43;;;24.70;99.90;;;;;;5099512;28;20431;-78
2022/07/30 11:48:18;;;;;;;5.73;2.00;;;24.80;99.90;;;;;;5098064;28;20428;-78
2022/07/30 11:50:46;;;;;;;3.00;2.27;;;24.90;99.90;;;;;;5097831;28;20464;-77
2022/07/30 11:53:16;;;;;;;6.57;3.47;;;24.90;99.90;;;;;;5097962;28;20818;-76
2022/07/30 11:55:46;;;;;;;2.63;2.43;;;24.90;99.90;;;;;;5099509;28;20420;-77
2022/07/30 11:58:24;;;;;;;2.60;1.90;;;25.00;99.90;;;;;;5097977;28;20439;-77
2022/07/30 12:00:51;;;;;;;1.73;1.63;;;25.00;99.90;;;;;;5096963;28;20475;-78
2022/07/30 12:03:21;;;;;;;2.87;2.57;;;25.00;99.90;;;;;;5103205;28;20443;-78
2022/07/30 12:05:48;;;;;;;1.50;1.40;;;;;;;;;;5097857;28;20428;-77
2022/07/30 12:08:16;;;;;;;4.27;2.30;;;25.00;99.90;;;;;;5097763;28;20498;-76
2022/07/30 12:10:54;;;;;;;9.67;5.03;;;25.10;99.90;;;;;;5097691;28;20472;-77
2022/07/30 12:13:20;;;;;;;6.83;3.20;;;25.20;99.90;;;;;;5097196;28;20424;-78
2022/07/30 12:15:48;;;;;;;2.37;2.17;;;25.20;99.90;;;;;;5096637;28;20810;-77
2022/07/30 12:18:23;;;;;;;6.60;5.60;;;25.20;99.90;;;;;;5096421;28;20448;-78
2022/07/30 12:20:54;;;;;;;2.93;2.33;;;25.20;99.90;;;;;;5096115;28;20463;-77
2022/07/30 12:23:21;;;;;;;3.90;2.50;;;25.10;99.90;;;;;;5096587;28;20783;-78
2022/07/30 12:25:48;;;;;;;2.37;1.73;;;25.20;99.90;;;;;;5096206;28;20471;-77
2022/07/30 12:28:20;;;;;;;2.47;1.67;;;25.30;99.90;;;;;;5096595;28;20446;-78
2022/07/30 12:30:47;;;;;;;2.97;2.07;;;25.40;99.90;;;;;;5096470;28;20472;-78
2022/07/30 12:33:14;;;;;;;2.63;2.43;;;25.40;99.90;;;;;;5095495;28;20942;-77
2022/07/30 12:35:47;;;;;;;3.30;2.23;;;25.30;99.90;;;;;;5094861;28;20957;-77
2022/07/30 12:38:15;;;;;;;3.00;2.10;;;25.30;99.90;;;;;;5096384;28;20448;-77
2022/07/30 12:40:52;;;;;;;3.03;2.50;;;25.20;99.90;;;;;;5096469;28;20487;-78
2022/07/30 12:43:44;;;;;;;11.17;6.47;;;25.20;99.90;;;;;;5095743;28;20444;-78
2022/07/30 12:46:11;;;;;;;2.43;2.30;;;25.40;99.90;;;;;;5095082;28;20417;-78
2022/07/30 12:48:38;;;;;;;4.70;2.00;;;25.50;99.90;;;;;;5095239;28;20451;-76
2022/07/30 12:51:08;;;;;;;9.10;3.47;;;25.50;99.90;;;;;;5095364;28;20444;-78
2022/07/30 12:53:36;;;;;;;3.27;2.77;;;25.60;99.90;;;;;;5096322;28;20450;-77
2022/07/30 12:56:12;;;;;;;2.83;2.40;;;25.90;99.90;;;;;;5097969;28;20445;-76
2022/07/30 12:58:40;;;;;;;3.90;2.87;;;25.90;99.90;;;;;;5098259;28;20893;-76
2022/07/30 13:01:07;;;;;;;5.90;2.70;;;26.00;99.90;;;;;;5096616;28;20447;-77
2022/07/30 13:03:38;;;;;;;3.00;2.70;;;26.10;99.90;;;;;;5096724;28;20448;-76
2022/07/30 13:06:15;;;;;;;2.20;1.80;;;26.20;99.90;;;;;;5095773;28;20420;-77
2022/07/30 13:08:50;;;;;;;2.30;2.10;;;25.90;99.90;;;;;;5095526;28;20439;-77
2022/07/30 13:11:18;;;;;;;5.57;2.27;;;25.90;99.90;;;;;;5094526;28;20447;-77